sensor_id;sensor_type;location;lat;lon;timestamp;pressure;altitude;pressure_sealevel;temperature;humidity
13612;BME280;6877;51.436;6.774;2024-01-30T00:01:40;102205.31;;;7.24;100.00
13612;BME280;6877;51.436;6.774;2024-01-30T00:04:12;102205.25;;;7.19;100.00
13612;BME280;6877;51.436;6.774;2024-01-30T00:06:38;102213.06;;;7.20;100.00
13612;BME280;6877;51.436;6.774;2024-01-30T00:09:09;102216.59;;;7.23;100.00
13612;BME280;6877;51.436;6.774;2024-01-30T00:11:37;102206.94;;;7.18;100.00
13612;BME280;6877;51.436;6.774;2024-01-30T00:14:09;102208.78;;;7.24;100.00
13612;BME280;6877;51.436;6.774;2024-01-30T00:16:35;102208.03;;;7.30;100.00
13612;BME280;6877;51.436;6.774;2024-01-30T00:19:02;102205.47;;;7.33;100.00
13612;BME280;6877;51.436;6.774;2024-01-30T00:21:29;102208.13;;;7.36;100.00
13612;BME280;6877;51.436;6.774;2024-01-30T00:23:56;102202.13;;;7.40;100.00
13612;BME280;6877;51.436;6.774;2024-01-30T00:26:27;102197.78;;;7.39;100.00
13612;BME280;6877;51.436;6.774;2024-01-30T00:28:54;102203.91;;;7.42;100.00
13612;BME280;6877;51.436;6.774;2024-01-30T00:31:21;102201.34;;;7.44;100.00
13612;BME280;6877;51.436;6.774;2024-01-30T00:33:52;102198.72;;;7.42;100.00
13612;BME280;6877;51.436;6.774;2024-01-30T00:36:18;102203.09;;;7.45;100.00
13612;BME280;6877;51.436;6.774;2024-01-30T00:38:45;102191.00;;;7.49;100.00
13612;BME280;6877;51.436;6.774;2024-01-30T00:41:11;102189.31;;;7.52;100.00
13612;BME280;6877;51.436;6.774;2024-01-30T00:43:38;102184.09;;;7.52;100.00
13612;BME280;6877;51.436;6.774;2024-01-30T00:46:10;102187.56;;;7.51;100.00
13612;BME280;6877;51.436;6.774;2024-01-30T00:48:41;102188.41;;;7.49;100.00
13612;BME280;6877;51.436;6.774;2024-01-30T00:51:08;102186.66;;;7.48;100.00
13612;BME280;6877;51.436;6.774;2024-01-30T00:53:34;102189.28;;;7.49;100.00
13612;BME280;6877;51.436;6.774;2024-01-30T00:56:01;102189.31;;;7.52;100.00
13612;BME280;6877;51.436;6.774;2024-01-30T00:58:27;102194.53;;;7.52;100.00
13612;BME280;6877;51.436;6.774;2024-01-30T01:00:59;102194.59;;;7.55;100.00
13612;BME280;6877;51.436;6.774;2024-01-30T01:03:25;102199.84;;;7.58;100.00
13612;BME280;6877;51.436;6.774;2024-01-30T01:05:52;102200.66;;;7.56;100.00
13612;BME280;6877;51.436;6.774;2024-01-30T01:08:18;102198.00;;;7.51;100.00
13612;BME280;6877;51.436;6.774;2024-01-30T01:10:51;102193.59;;;7.47;100.00
13612;BME280;6877;51.436;6.774;2024-01-30T01:13:22;102200.50;;;7.47;100.00
13612;BME280;6877;51.436;6.774;2024-01-30T01:15:54;102199.63;;;7.46;100.00
13612;BME280;6877;51.436;6.774;2024-01-30T01:18:21;102202.22;;;7.45;100.00
13612;BME280;6877;51.436;6.774;2024-01-30T01:20:47;102198.72;;;7.42;100.00
13612;BME280;6877;51.436;6.774;2024-01-30T01:23:13;102196.97;;;7.41;100.00
13612;BME280;6877;51.436;6.774;2024-01-30T01:25:40;102197.84;;;7.42;100.00
13612;BME280;6877;51.436;6.774;2024-01-30T01:28:07;102195.19;;;7.39;100.00
13612;BME280;6877;51.436;6.774;2024-01-30T01:30:33;102189.91;;;7.36;100.00
13612;BME280;6877;51.436;6.774;2024-01-30T01:33:05;102195.13;;;7.36;100.00
13612;BME280;6877;51.436;6.774;2024-01-30T01:35:33;102195.13;;;7.36;100.00
13612;BME280;6877;51.436;6.774;2024-01-30T01:37:59;102182.97;;;7.35;100.00
13612;BME280;6877;51.436;6.774;2024-01-30T01:40:27;102185.56;;;7.36;100.00
13612;BME280;6877;51.436;6.774;2024-01-30T01:42:58;102187.31;;;7.36;100.00
13612;BME280;6877;51.436;6.774;2024-01-30T01:45:25;102182.09;;;7.36;100.00
13612;BME280;6877;51.436;6.774;2024-01-30T01:47:52;102184.59;;;7.31;100.00
13612;BME280;6877;51.436;6.774;2024-01-30T01:50:24;102175.88;;;7.28;100.00
13612;BME280;6877;51.436;6.774;2024-01-30T01:52:51;102179.31;;;7.27;100.00
13612;BME280;6877;51.436;6.774;2024-01-30T01:55:21;102181.94;;;7.27;100.00
13612;BME280;6877;51.436;6.774;2024-01-30T01:57:58;102176.66;;;7.24;100.00
13612;BME280;6877;51.436;6.774;2024-01-30T02:00:24;102170.44;;;7.15;100.00
13612;BME280;6877;51.436;6.774;2024-01-30T02:02:54;102176.50;;;7.14;100.00
13612;BME280;6877;51.436;6.774;2024-01-30T02:05:26;102172.09;;;7.10;100.00
13612;BME280;6877;51.436;6.774;2024-01-30T02:07:52;102166.84;;;7.07;100.00
13612;BME280;6877;51.436;6.774;2024-01-30T02:10:19;102164.16;;;7.04;100.00
13612;BME280;6877;51.436;6.774;2024-01-30T02:12:48;102160.66;;;7.02;100.00
13612;BME280;6877;51.436;6.774;2024-01-30T02:15:17;102166.66;;;6.98;100.00
13612;BME280;6877;51.436;6.774;2024-01-30T02:17:44;102156.13;;;6.92;100.00
13612;BME280;6877;51.436;6.774;2024-01-30T02:20:16;102162.19;;;6.92;100.00
13612;BME280;6877;51.436;6.774;2024-01-30T02:22:43;102158.72;;;6.92;100.00
13612;BME280;6877;51.436;6.774;2024-01-30T02:25:09;102157.88;;;6.93;100.00
13612;BME280;6877;51.436;6.774;2024-01-30T02:27:36;102158.72;;;6.92;100.00
13612;BME280;6877;51.436;6.774;2024-01-30T02:30:08;102153.47;;;6.87;100.00
13612;BME280;6877;51.436;6.774;2024-01-30T02:32:34;102143.00;;;6.86;100.00
13612;BME280;6877;51.436;6.774;2024-01-30T02:35:06;102144.69;;;6.84;100.00
13612;BME280;6877;51.436;6.774;2024-01-30T02:37:37;102146.47;;;6.85;100.00
13612;BME280;6877;51.436;6.774;2024-01-30T02:40:04;102145.84;;;6.98;100.00
13612;BME280;6877;51.436;6.774;2024-01-30T02:42:31;102136.34;;;7.00;100.00
13612;BME280;6877;51.436;6.774;2024-01-30T02:44:57;102139.78;;;6.99;100.00
13612;BME280;6877;51.436;6.774;2024-01-30T02:47:24;102136.34;;;7.00;100.00
13612;BME280;6877;51.436;6.774;2024-01-30T02:49:51;102132.03;;;7.02;100.00
13612;BME280;6877;51.436;6.774;2024-01-30T02:52:22;102130.41;;;7.09;100.00
13612;BME280;6877;51.436;6.774;2024-01-30T02:54:49;102119.28;;;7.16;100.00
13612;BME280;6877;51.436;6.774;2024-01-30T02:57:15;102128.00;;;7.19;100.00
13612;BME280;6877;51.436;6.774;2024-01-30T02:59:42;102127.06;;;7.16;100.00
13612;BME280;6877;51.436;6.774;2024-01-30T03:02:08;102122.75;;;7.16;100.00
13612;BME280;6877;51.436;6.774;2024-01-30T03:04:35;102119.22;;;7.14;100.00
13612;BME280;6877;51.436;6.774;2024-01-30T03:07:01;102127.91;;;7.13;100.00
13612;BME280;6877;51.436;6.774;2024-01-30T03:09:28;102126.13;;;7.12;100.00
13612;BME280;6877;51.436;6.774;2024-01-30T03:11:59;102123.50;;;7.09;100.00
13612;BME280;6877;51.436;6.774;2024-01-30T03:14:27;102126.09;;;7.09;100.00
13612;BME280;6877;51.436;6.774;2024-01-30T03:16:58;102126.09;;;7.09;100.00
13612;BME280;6877;51.436;6.774;2024-01-30T03:19:25;102114.78;;;7.07;100.00
13612;BME280;6877;51.436;6.774;2024-01-30T03:21:51;102120.91;;;7.09;100.00
13612;BME280;6877;51.436;6.774;2024-01-30T03:24:23;102120.91;;;7.09;100.00
13612;BME280;6877;51.436;6.774;2024-01-30T03:26:54;102122.56;;;7.07;100.00
13612;BME280;6877;51.436;6.774;2024-01-30T03:29:26;102118.19;;;7.03;100.00
13612;BME280;6877;51.436;6.774;2024-01-30T03:31:58;102125.94;;;7.00;100.00
13612;BME280;6877;51.436;6.774;2024-01-30T03:34:29;102116.34;;;6.97;100.00
13612;BME280;6877;51.436;6.774;2024-01-30T03:36:56;102115.47;;;6.99;100.00
13612;BME280;6877;51.436;6.774;2024-01-30T03:39:23;102115.47;;;6.97;100.00
13612;BME280;6877;51.436;6.774;2024-01-30T03:41:54;102113.69;;;6.96;100.00
13612;BME280;6877;51.436;6.774;2024-01-30T03:44:21;102119.69;;;6.92;100.00
13612;BME280;6877;51.436;6.774;2024-01-30T03:46:52;102115.34;;;6.91;100.00
13612;BME280;6877;51.436;6.774;2024-01-30T03:49:19;102114.50;;;6.92;100.00
13612;BME280;6877;51.436;6.774;2024-01-30T03:51:50;102105.72;;;6.87;100.00
13612;BME280;6877;51.436;6.774;2024-01-30T03:54:16;102110.03;;;6.85;100.00
13612;BME280;6877;51.436;6.774;2024-01-30T03:56:48;102109.06;;;6.80;100.00
13612;BME280;6877;51.436;6.774;2024-01-30T03:59:14;102108.97;;;6.75;100.00
13612;BME280;6877;51.436;6.774;2024-01-30T04:01:41;102110.66;;;6.73;100.00
13612;BME280;6877;51.436;6.774;2024-01-30T04:04:12;102099.38;;;6.72;100.00
13612;BME280;6877;51.436;6.774;2024-01-30T04:06:39;102102.84;;;6.71;100.00
13612;BME280;6877;51.436;6.774;2024-01-30T04:09:05;102095.84;;;6.69;100.00
13612;BME280;6877;51.436;6.774;2024-01-30T04:11:32;102083.72;;;6.69;100.00
13612;BME280;6877;51.436;6.774;2024-01-30T04:13:58;102083.66;;;6.66;100.00
13612;BME280;6877;51.436;6.774;2024-01-30T04:16:24;102084.53;;;6.65;100.00
13612;BME280;6877;51.436;6.774;2024-01-30T04:18:56;102081.94;;;6.67;100.00
13612;BME280;6877;51.436;6.774;2024-01-30T04:21:22;102081.97;;;6.68;100.00
13612;BME280;6877;51.436;6.774;2024-01-30T04:23:54;102076.78;;;6.68;100.00
13612;BME280;6877;51.436;6.774;2024-01-30T04:26:21;102086.31;;;6.69;100.00
13612;BME280;6877;51.436;6.774;2024-01-30T04:28:47;102081.97;;;6.68;100.00
13612;BME280;6877;51.436;6.774;2024-01-30T04:31:13;102081.19;;;6.74;100.00
13612;BME280;6877;51.436;6.774;2024-01-30T04:33:40;102088.09;;;6.72;100.00
13612;BME280;6877;51.436;6.774;2024-01-30T04:36:11;102083.63;;;6.65;100.00
13612;BME280;6877;51.436;6.774;2024-01-30T04:38:38;102092.25;;;6.62;100.00
13612;BME280;6877;51.436;6.774;2024-01-30T04:41:05;102087.88;;;6.60;100.00
13612;BME280;6877;51.436;6.774;2024-01-30T04:43:32;102089.59;;;6.59;100.00
13612;BME280;6877;51.436;6.774;2024-01-30T04:46:04;102085.28;;;6.60;100.00
13612;BME280;6877;51.436;6.774;2024-01-30T04:48:30;102089.63;;;6.61;100.00
13612;BME280;6877;51.436;6.774;2024-01-30T04:50:57;102087.00;;;6.59;100.00
13612;BME280;6877;51.436;6.774;2024-01-30T04:53:23;102091.38;;;6.62;100.00
13612;BME280;6877;51.436;6.774;2024-01-30T04:55:50;102091.41;;;6.65;100.00
13612;BME280;6877;51.436;6.774;2024-01-30T04:58:16;102095.03;;;6.71;100.00
13612;BME280;6877;51.436;6.774;2024-01-30T05:00:42;102090.78;;;6.77;100.00
13612;BME280;6877;51.436;6.774;2024-01-30T05:03:14;102085.59;;;6.77;100.00
13612;BME280;6877;51.436;6.774;2024-01-30T05:05:41;102088.28;;;6.81;100.00
13612;BME280;6877;51.436;6.774;2024-01-30T05:08:07;102079.72;;;6.88;100.00
13612;BME280;6877;51.436;6.774;2024-01-30T05:10:34;102079.75;;;6.90;100.00
13612;BME280;6877;51.436;6.774;2024-01-30T05:13:00;102078.84;;;6.88;100.00
13612;BME280;6877;51.436;6.774;2024-01-30T05:15:32;102085.75;;;6.86;100.00
13612;BME280;6877;51.436;6.774;2024-01-30T05:18:03;102080.66;;;6.92;100.00
13612;BME280;6877;51.436;6.774;2024-01-30T05:20:30;102080.72;;;6.96;100.00
13612;BME280;6877;51.436;6.774;2024-01-30T05:22:56;102084.13;;;6.91;100.00
13612;BME280;6877;51.436;6.774;2024-01-30T05:25:23;102071.94;;;6.90;100.00
13612;BME280;6877;51.436;6.774;2024-01-30T05:27:49;102079.72;;;6.88;100.00
13612;BME280;6877;51.436;6.774;2024-01-30T05:30:16;102078.00;;;6.89;100.00
13612;BME280;6877;51.436;6.774;2024-01-30T05:32:47;102079.56;;;6.79;100.00
13612;BME280;6877;51.436;6.774;2024-01-30T05:35:14;102078.56;;;6.72;100.00
13612;BME280;6877;51.436;6.774;2024-01-30T05:37:40;102077.59;;;6.66;100.00
13612;BME280;6877;51.436;6.774;2024-01-30T05:40:07;102075.00;;;6.67;100.00
13612;BME280;6877;51.436;6.774;2024-01-30T05:42:39;102070.78;;;6.74;100.00
13612;BME280;6877;51.436;6.774;2024-01-30T05:45:06;102067.34;;;6.75;100.00
13612;BME280;6877;51.436;6.774;2024-01-30T05:47:32;102072.56;;;6.75;100.00
13612;BME280;6877;51.436;6.774;2024-01-30T05:49:59;102071.56;;;6.68;100.00
13612;BME280;6877;51.436;6.774;2024-01-30T05:52:31;102068.00;;;6.63;100.00
13612;BME280;6877;51.436;6.774;2024-01-30T05:55:02;102065.41;;;6.63;100.00
13612;BME280;6877;51.436;6.774;2024-01-30T05:57:29;102058.34;;;6.58;100.00
13612;BME280;6877;51.436;6.774;2024-01-30T05:59:56;102062.72;;;6.60;100.00
13612;BME280;6877;51.436;6.774;2024-01-30T06:02:22;102061.22;;;6.71;100.00
13612;BME280;6877;51.436;6.774;2024-01-30T06:04:54;102066.56;;;6.81;100.00
13612;BME280;6877;51.436;6.774;2024-01-30T06:07:25;102062.34;;;6.86;100.00
13612;BME280;6877;51.436;6.774;2024-01-30T06:09:57;102071.81;;;6.84;100.00
13612;BME280;6877;51.436;6.774;2024-01-30T06:12:23;102070.91;;;6.80;100.00
13612;BME280;6877;51.436;6.774;2024-01-30T06:14:54;102065.75;;;6.82;100.00
13612;BME280;6877;51.436;6.774;2024-01-30T06:17:23;102070.31;;;6.95;100.00
13612;BME280;6877;51.436;6.774;2024-01-30T06:19:50;102075.72;;;7.07;100.00
13612;BME280;6877;51.436;6.774;2024-01-30T06:22:16;102080.13;;;7.11;100.00
13612;BME280;6877;51.436;6.774;2024-01-30T06:24:43;102069.84;;;7.19;100.00
13612;BME280;6877;51.436;6.774;2024-01-30T06:27:11;102078.66;;;7.27;100.00
13612;BME280;6877;51.436;6.774;2024-01-30T06:29:37;102059.59;;;7.31;100.00
13612;BME280;6877;51.436;6.774;2024-01-30T06:32:09;102049.34;;;7.40;100.00
13612;BME280;6877;51.436;6.774;2024-01-30T06:34:36;102051.25;;;7.51;100.00
13612;BME280;6877;51.436;6.774;2024-01-30T06:37:05;102058.22;;;7.53;100.00
13612;BME280;6877;51.436;6.774;2024-01-30T06:39:31;102061.59;;;7.46;100.00
13612;BME280;6877;51.436;6.774;2024-01-30T06:41:58;102071.03;;;7.39;100.00
13612;BME280;6877;51.436;6.774;2024-01-30T06:44:29;102065.81;;;7.38;100.00
13612;BME280;6877;51.436;6.774;2024-01-30T06:46:56;102055.44;;;7.41;100.00
13612;BME280;6877;51.436;6.774;2024-01-30T06:49:22;102068.44;;;7.39;100.00
13612;BME280;6877;51.436;6.774;2024-01-30T06:51:49;102069.25;;;7.37;100.00
13612;BME280;6877;51.436;6.774;2024-01-30T06:54:15;102076.22;;;7.38;100.00
13612;BME280;6877;51.436;6.774;2024-01-30T06:56:43;102063.28;;;7.42;100.00
13612;BME280;6877;51.436;6.774;2024-01-30T06:59:10;102072.91;;;7.48;100.00
13612;BME280;6877;51.436;6.774;2024-01-30T07:01:37;102080.72;;;7.50;100.00
13612;BME280;6877;51.436;6.774;2024-01-30T07:04:08;102080.72;;;7.50;100.00
13612;BME280;6877;51.436;6.774;2024-01-30T07:06:35;102081.59;;;7.47;100.00
13612;BME280;6877;51.436;6.774;2024-01-30T07:09:01;102084.19;;;7.47;100.00
13612;BME280;6877;51.436;6.774;2024-01-30T07:11:29;102083.34;;;7.48;100.00
13612;BME280;6877;51.436;6.774;2024-01-30T07:13:56;102084.16;;;7.46;100.00
13612;BME280;6877;51.436;6.774;2024-01-30T07:16:22;102086.81;;;7.47;100.00
13612;BME280;6877;51.436;6.774;2024-01-30T07:18:49;102083.28;;;7.45;100.00
13612;BME280;6877;51.436;6.774;2024-01-30T07:21:16;102084.97;;;7.43;100.00
13612;BME280;6877;51.436;6.774;2024-01-30T07:23:43;102083.19;;;7.40;100.00
13612;BME280;6877;51.436;6.774;2024-01-30T07:26:09;102097.16;;;7.44;100.00
13612;BME280;6877;51.436;6.774;2024-01-30T07:28:36;102091.06;;;7.43;100.00
13612;BME280;6877;51.436;6.774;2024-01-30T07:31:08;102094.63;;;7.47;100.00
13612;BME280;6877;51.436;6.774;2024-01-30T07:33:34;102089.41;;;7.50;100.00
13612;BME280;6877;51.436;6.774;2024-01-30T07:36:00;102097.31;;;7.55;100.00
13612;BME280;6877;51.436;6.774;2024-01-30T07:38:27;102098.22;;;7.57;100.00
13612;BME280;6877;51.436;6.774;2024-01-30T07:40:56;102101.72;;;7.59;100.00
13612;BME280;6877;51.436;6.774;2024-01-30T07:43:23;102108.72;;;7.61;100.00
13612;BME280;6877;51.436;6.774;2024-01-30T07:45:49;102111.34;;;7.63;100.00
13612;BME280;6877;51.436;6.774;2024-01-30T07:48:16;102118.38;;;7.69;100.00
13612;BME280;6877;51.436;6.774;2024-01-30T07:50:43;102114.97;;;7.73;100.00
13612;BME280;6877;51.436;6.774;2024-01-30T07:53:09;102115.06;;;7.79;100.00
13612;BME280;6877;51.436;6.774;2024-01-30T07:55:36;102118.59;;;7.82;100.00
13612;BME280;6877;51.436;6.774;2024-01-30T07:58:02;102123.81;;;7.84;100.00
13612;BME280;6877;51.436;6.774;2024-01-30T08:00:30;102124.72;;;7.87;100.00
13612;BME280;6877;51.436;6.774;2024-01-30T08:02:58;102130.81;;;7.88;100.00
13612;BME280;6877;51.436;6.774;2024-01-30T08:05:25;102120.44;;;7.91;100.00
13612;BME280;6877;51.436;6.774;2024-01-30T08:07:51;102115.25;;;7.94;100.00
13612;BME280;6877;51.436;6.774;2024-01-30T08:10:23;102118.78;;;7.96;100.00
13612;BME280;6877;51.436;6.774;2024-01-30T08:12:50;102125.78;;;8.00;100.00
13612;BME280;6877;51.436;6.774;2024-01-30T08:15:16;102134.50;;;8.04;100.00
13612;BME280;6877;51.436;6.774;2024-01-30T08:17:43;102134.59;;;8.08;100.00
13612;BME280;6877;51.436;6.774;2024-01-30T08:20:11;102149.41;;;8.11;100.00
13612;BME280;6877;51.436;6.774;2024-01-30T08:22:38;102145.97;;;8.15;100.00
13612;BME280;6877;51.436;6.774;2024-01-30T08:25:06;102139.97;;;8.21;100.00
13612;BME280;6877;51.436;6.774;2024-01-30T08:27:33;102131.28;;;8.22;100.00
13612;BME280;6877;51.436;6.774;2024-01-30T08:30:02;102140.03;;;8.25;100.00
13612;BME280;6877;51.436;6.774;2024-01-30T08:32:29;102141.84;;;8.31;100.00
13612;BME280;6877;51.436;6.774;2024-01-30T08:34:55;102139.31;;;8.37;100.00
13612;BME280;6877;51.436;6.774;2024-01-30T08:37:22;102130.69;;;8.41;100.00
13612;BME280;6877;51.436;6.774;2024-01-30T08:39:48;102137.75;;;8.47;100.00
13612;BME280;6877;51.436;6.774;2024-01-30T08:42:15;102147.38;;;8.52;100.00
13612;BME280;6877;51.436;6.774;2024-01-30T08:44:42;102143.06;;;8.56;100.00
13612;BME280;6877;51.436;6.774;2024-01-30T08:47:08;102139.63;;;8.60;100.00
13612;BME280;6877;51.436;6.774;2024-01-30T08:49:35;102147.53;;;8.65;100.00
13612;BME280;6877;51.436;6.774;2024-01-30T08:52:01;102145.88;;;8.73;100.00
13612;BME280;6877;51.436;6.774;2024-01-30T08:54:28;102145.94;;;8.79;100.00
13612;BME280;6877;51.436;6.774;2024-01-30T08:56:54;102151.22;;;8.85;100.00
13612;BME280;6877;51.436;6.774;2024-01-30T08:59:22;102147.78;;;8.86;100.00
13612;BME280;6877;51.436;6.774;2024-01-30T09:01:53;102154.75;;;8.87;100.00
13612;BME280;6877;51.436;6.774;2024-01-30T09:04:21;102151.25;;;8.88;100.00
13612;BME280;6877;51.436;6.774;2024-01-30T09:06:53;102159.97;;;8.89;100.00
13612;BME280;6877;51.436;6.774;2024-01-30T09:09:25;102164.31;;;8.88;100.00
13612;BME280;6877;51.436;6.774;2024-01-30T09:11:56;102172.16;;;8.88;100.00
13612;BME280;6877;51.436;6.774;2024-01-30T09:14:28;102180.84;;;8.89;100.00
13612;BME280;6877;51.436;6.774;2024-01-30T09:16:55;102185.28;;;8.93;100.00
13612;BME280;6877;51.436;6.774;2024-01-30T09:19:21;102182.75;;;9.03;100.00
13612;BME280;6877;51.436;6.774;2024-01-30T09:21:48;102176.81;;;9.18;100.00
13612;BME280;6877;51.436;6.774;2024-01-30T09:24:14;102183.06;;;9.36;100.00
13612;BME280;6877;51.436;6.774;2024-01-30T09:26:46;102181.50;;;9.55;100.00
13612;BME280;6877;51.436;6.774;2024-01-30T09:29:13;102179.03;;;9.73;100.00
13612;BME280;6877;51.436;6.774;2024-01-30T09:31:43;102178.34;;;9.98;100.00
13612;BME280;6877;51.436;6.774;2024-01-30T09:34:10;102176.88;;;10.34;100.00
13612;BME280;6877;51.436;6.774;2024-01-30T09:36:40;102175.34;;;10.82;100.00
13612;BME280;6877;51.436;6.774;2024-01-30T09:39:06;102170.16;;;11.07;100.00
13612;BME280;6877;51.436;6.774;2024-01-30T09:42:00;102177.16;;;11.17;100.00
13612;BME280;6877;51.436;6.774;2024-01-30T09:44:29;102180.66;;;11.07;100.00
13612;BME280;6877;51.436;6.774;2024-01-30T09:46:56;102180.59;;;10.93;100.00
13612;BME280;6877;51.436;6.774;2024-01-30T09:49:32;102177.09;;;10.88;100.00
13612;BME280;6877;51.436;6.774;2024-01-30T09:51:59;102177.97;;;10.88;100.00
13612;BME280;6877;51.436;6.774;2024-01-30T09:54:31;102178.88;;;11.06;100.00
13612;BME280;6877;51.436;6.774;2024-01-30T09:56:58;102185.91;;;11.37;100.00
13612;BME280;6877;51.436;6.774;2024-01-30T09:59:25;102186.81;;;11.81;100.00
13612;BME280;6877;51.436;6.774;2024-01-30T10:01:57;102180.69;;;11.88;100.00
13612;BME280;6877;51.436;6.774;2024-01-30T10:04:28;102186.81;;;11.73;100.00
13612;BME280;6877;51.436;6.774;2024-01-30T10:06:55;102188.56;;;11.54;100.00
13612;BME280;6877;51.436;6.774;2024-01-30T10:09:22;102182.44;;;11.39;100.00
13612;BME280;6877;51.436;6.774;2024-01-30T10:11:51;102181.56;;;11.32;100.00
13612;BME280;6877;51.436;6.774;2024-01-30T10:14:17;102178.91;;;11.24;100.00
13612;BME280;6877;51.436;6.774;2024-01-30T10:16:46;102181.56;;;11.32;100.00
13612;BME280;6877;51.436;6.774;2024-01-30T10:19:13;102176.31;;;11.35;100.00
13612;BME280;6877;51.436;6.774;2024-01-30T10:21:40;102181.56;;;11.32;100.00
13612;BME280;6877;51.436;6.774;2024-01-30T10:24:07;102178.94;;;11.29;100.00
13612;BME280;6877;51.436;6.774;2024-01-30T10:26:38;102184.16;;;11.24;100.00
13612;BME280;6877;51.436;6.774;2024-01-30T10:29:05;102194.63;;;11.18;100.00
13612;BME280;6877;51.436;6.774;2024-01-30T10:31:31;102188.50;;;11.11;100.00
13612;BME280;6877;51.436;6.774;2024-01-30T10:33:58;102192.00;;;11.07;100.00
13612;BME280;6877;51.436;6.774;2024-01-30T10:36:28;102196.38;;;11.07;100.00
13612;BME280;6877;51.436;6.774;2024-01-30T10:39:01;102188.50;;;11.14;100.00
13612;BME280;6877;51.436;6.774;2024-01-30T10:41:31;102188.53;;;11.30;100.00
13612;BME280;6877;51.436;6.774;2024-01-30T10:44:18;102196.41;;;11.50;100.00
13612;BME280;6877;51.436;6.774;2024-01-30T10:46:50;102200.78;;;11.63;100.00
13612;BME280;6877;51.436;6.774;2024-01-30T10:49:17;102204.28;;;11.74;100.00
13612;BME280;6877;51.436;6.774;2024-01-30T10:51:45;102202.53;;;11.72;100.00
13612;BME280;6877;51.436;6.774;2024-01-30T10:54:22;102206.91;;;11.62;100.00
13612;BME280;6877;51.436;6.774;2024-01-30T10:56:51;102207.78;;;11.58;100.00
13612;BME280;6877;51.436;6.774;2024-01-30T10:59:23;102198.16;;;11.60;100.00
13612;BME280;6877;51.436;6.774;2024-01-30T11:01:51;102199.94;;;11.58;100.00
13612;BME280;6877;51.436;6.774;2024-01-30T11:04:23;102194.69;;;11.64;100.00
13612;BME280;6877;51.436;6.774;2024-01-30T11:06:51;102198.16;;;11.81;100.00
13612;BME280;6877;51.436;6.774;2024-01-30T11:09:18;102200.81;;;11.98;100.00
13612;BME280;6877;51.436;6.774;2024-01-30T11:11:50;102192.94;;;12.06;100.00
13612;BME280;6877;51.436;6.774;2024-01-30T11:14:23;102190.31;;;12.08;100.00
13612;BME280;6877;51.436;6.774;2024-01-30T11:16:50;102194.69;;;11.98;100.00
13612;BME280;6877;51.436;6.774;2024-01-30T11:19:31;102199.06;;;11.97;100.00
13612;BME280;6877;51.436;6.774;2024-01-30T11:21:57;102193.81;;;11.97;100.00
13612;BME280;6877;51.436;6.774;2024-01-30T11:24:24;102203.44;;;12.00;100.00
13612;BME280;6877;51.436;6.774;2024-01-30T11:27:00;102203.44;;;11.94;100.00
13612;BME280;6877;51.436;6.774;2024-01-30T11:29:35;102209.56;;;11.85;100.00
13612;BME280;6877;51.436;6.774;2024-01-30T11:32:01;102219.16;;;11.81;100.00
13612;BME280;6877;51.436;6.774;2024-01-30T11:34:28;102213.91;;;11.78;100.00
13612;BME280;6877;51.436;6.774;2024-01-30T11:36:59;102209.53;;;11.74;100.00
13612;BME280;6877;51.436;6.774;2024-01-30T11:39:29;102212.16;;;11.65;100.00
13612;BME280;6877;51.436;6.774;2024-01-30T11:42:03;102218.28;;;11.58;100.00
13612;BME280;6877;51.436;6.774;2024-01-30T11:44:31;102212.16;;;11.50;100.00
13612;BME280;6877;51.436;6.774;2024-01-30T11:46:57;102214.78;;;11.42;100.00
13612;BME280;6877;51.436;6.774;2024-01-30T11:49:24;102208.66;;;11.39;100.00
13612;BME280;6877;51.436;6.774;2024-01-30T11:51:50;102206.03;;;11.35;100.00
13612;BME280;6877;51.436;6.774;2024-01-30T11:54:24;102208.63;;;11.32;100.00
13612;BME280;6877;51.436;6.774;2024-01-30T11:56:55;102198.16;;;11.29;100.00
13612;BME280;6877;51.436;6.774;2024-01-30T11:59:27;102203.38;;;11.28;100.00
13612;BME280;6877;51.436;6.774;2024-01-30T12:01:53;102194.66;;;11.27;100.00
13612;BME280;6877;51.436;6.774;2024-01-30T12:04:28;102191.13;;;11.28;100.00
13612;BME280;6877;51.436;6.774;2024-01-30T12:06:56;102180.69;;;11.30;100.00
13612;BME280;6877;51.436;6.774;2024-01-30T12:09:22;102184.16;;;11.30;100.00
13612;BME280;6877;51.436;6.774;2024-01-30T12:11:49;102190.28;;;11.31;100.00
13612;BME280;6877;51.436;6.774;2024-01-30T12:14:23;102185.91;;;11.31;100.00
13612;BME280;6877;51.436;6.774;2024-01-30T12:16:56;102188.53;;;11.30;100.00
13612;BME280;6877;51.436;6.774;2024-01-30T12:19:25;102187.69;;;11.32;100.00
13612;BME280;6877;51.436;6.774;2024-01-30T12:21:57;102191.16;;;11.31;100.00
13612;BME280;6877;51.436;6.774;2024-01-30T12:24:26;102190.28;;;11.31;100.00
13612;BME280;6877;51.436;6.774;2024-01-30T12:26:57;102185.03;;;11.31;100.00
13612;BME280;6877;51.436;6.774;2024-01-30T12:29:23;102190.28;;;11.34;100.00
13612;BME280;6877;51.436;6.774;2024-01-30T12:31:53;102185.06;;;11.35;100.00
13612;BME280;6877;51.436;6.774;2024-01-30T12:34:20;102196.41;;;11.34;100.00
13612;BME280;6877;51.436;6.774;2024-01-30T12:36:47;102194.66;;;11.30;100.00
13612;BME280;6877;51.436;6.774;2024-01-30T12:39:20;102185.03;;;11.28;100.00
13612;BME280;6877;51.436;6.774;2024-01-30T12:41:46;102178.91;;;11.24;100.00
13612;BME280;6877;51.436;6.774;2024-01-30T12:44:18;102187.66;;;11.23;100.00
13612;BME280;6877;51.436;6.774;2024-01-30T12:46:46;102183.28;;;11.21;100.00
13612;BME280;6877;51.436;6.774;2024-01-30T12:49:13;102189.38;;;11.21;100.00
13612;BME280;6877;51.436;6.774;2024-01-30T12:51:44;102194.63;;;11.21;100.00
13612;BME280;6877;51.436;6.774;2024-01-30T12:54:12;102189.38;;;11.21;100.00
13612;BME280;6877;51.436;6.774;2024-01-30T12:56:39;102189.38;;;11.21;100.00
13612;BME280;6877;51.436;6.774;2024-01-30T12:59:05;102185.91;;;11.19;100.00
13612;BME280;6877;51.436;6.774;2024-01-30T13:01:32;102193.75;;;11.21;100.00
13612;BME280;6877;51.436;6.774;2024-01-30T13:03:58;102193.75;;;11.21;100.00